This is the latest recevied weather packets stored in our database for station/object F4JSG-10. If no packets are shown the sender has not sent any weather packets the latest 1 day(s).
| Time | Temp. | Humidity | Pressure | Rain* | Wind** | Luminosity | Snow |
|---|---|---|---|---|---|---|---|
| 1788602314 | 30.56° C | 42% | 997 hPa | - | - | - | - |
| 1788601414 | 31.67° C | 37% | 996.9 hPa | - | - | - | - |
| 1788600514 | 29.44° C | 45% | 997 hPa | - | - | - | - |
| 1788599614 | 27.22° C | 54% | 997.1 hPa | - | - | - | - |
| 1788598714 | 25° C | 65% | 996.8 hPa | - | - | - | - |
| 1788597814 | 24.44° C | 67% | 996.7 hPa | - | - | - | - |
| 1788596914 | 23.33° C | 79% | 996.5 hPa | - | - | - | - |
| 1788596013 | 21.67° C | 90% | 996.4 hPa | - | - | - | - |
| 1788595975 | 21.67° C | 90% | 996.5 hPa | - | - | - | - |
| 1788595936 | 21.67° C | 91% | 996.4 hPa | - | - | - | - |
| 1788595897 | 21.67° C | 91% | 996.5 hPa | - | - | - | - |
| 1788595858 | 21.67° C | 91% | 996.4 hPa | - | - | - | - |
| 1788595819 | 21.67° C | 92% | 996.4 hPa | - | - | - | - |
| 1788595780 | 21.11° C | 92% | 996.4 hPa | - | - | - | - |
| 1788595741 | 21.11° C | 92% | 996.3 hPa | - | - | - | - |
| 1788595630 | 21.11° C | 92% | 996.4 hPa | - | - | - | - |
| 1788594086 | 22.22° C | 86% | 996.3 hPa | - | - | - | - |
| 1788594021 | 22.22° C | 87% | 996.3 hPa | - | - | - | - |
| 1788593982 | 22.22° C | 87% | 996.3 hPa | - | - | - | - |
| 1788593943 | 22.22° C | 87% | 996.3 hPa | - | - | - | - |
| 1788593904 | 22.22° C | 87% | 996.3 hPa | - | - | - | - |
| 1788593865 | 22.22° C | 87% | 996.3 hPa | - | - | - | - |
| 1788593653 | 21.67° C | 88% | 996.2 hPa | - | - | - | - |
| 1788593581 | 21.67° C | 88% | 996.3 hPa | - | - | - | - |
| 1788593542 | 21.67° C | 89% | 996.3 hPa | - | - | - | - |
* Rain since midnight (hover to see other rain measurements)
** Current wind speed in m/s (hover to see current wind gust speed)